createdAt,value
2018-06-30T00:01:23.320Z,77.3
2018-06-30T00:06:20.577Z,77.1
2018-06-30T00:11:18.060Z,77.1
2018-06-30T00:16:15.544Z,77.1
2018-06-30T00:21:12.996Z,76.9
2018-06-30T00:26:10.251Z,77
2018-06-30T00:31:07.509Z,77
2018-06-30T00:36:04.997Z,76.9
2018-06-30T00:41:02.137Z,76.6
2018-06-30T00:45:59.727Z,76.7
2018-06-30T00:50:57.668Z,76.5
2018-06-30T00:55:55.141Z,76.4
2018-06-30T01:00:52.524Z,76.4
2018-06-30T01:05:50.005Z,76.3
2018-06-30T01:10:47.383Z,76.3
2018-06-30T01:15:45.368Z,76.2
2018-06-30T01:20:43.360Z,76.1
2018-06-30T01:25:40.641Z,76.1
2018-06-30T01:30:38.752Z,76.1
2018-06-30T01:35:35.735Z,76.2
2018-06-30T01:40:33.069Z,76.1
2018-06-30T01:45:30.654Z,76.1
2018-06-30T01:50:27.828Z,76
2018-06-30T01:55:25.480Z,76
2018-06-30T02:00:22.558Z,75.8
2018-06-30T02:05:20.875Z,75.7
2018-06-30T02:10:18.257Z,75.8
2018-06-30T02:15:15.291Z,75.8
2018-06-30T02:20:13.752Z,75.7
2018-06-30T02:25:11.096Z,75.7
2018-06-30T02:30:07.921Z,75.7
2018-06-30T02:35:05.395Z,75.7
2018-06-30T02:40:02.389Z,75.8
2018-06-30T02:44:59.735Z,75.6
2018-06-30T02:49:57.104Z,75.7
2018-06-30T02:54:54.920Z,75.7
2018-06-30T02:59:52.157Z,75.5
2018-06-30T03:04:49.295Z,75.5
2018-06-30T03:09:46.513Z,75.4
2018-06-30T03:14:44.312Z,75.3
2018-06-30T03:19:41.066Z,75.2
2018-06-30T03:24:38.433Z,75
2018-06-30T03:29:35.890Z,74.8
2018-06-30T03:34:34.336Z,74.7
2018-06-30T03:39:31.468Z,74.7
2018-06-30T03:44:29.043Z,74.8
2018-06-30T03:49:26.573Z,74.8
2018-06-30T03:54:24.842Z,74.8
2018-06-30T03:59:21.639Z,75.1
2018-06-30T04:04:18.513Z,75.1
2018-06-30T04:09:15.830Z,74.9
2018-06-30T04:14:13.644Z,75.1
2018-06-30T04:19:11.089Z,75.1
2018-06-30T04:24:08.164Z,74.8
2018-06-30T04:29:05.140Z,74.9
2018-06-30T04:34:02.415Z,74.9
2018-06-30T04:38:59.513Z,75
2018-06-30T04:43:56.767Z,74.9
2018-06-30T04:48:54.100Z,74.9
2018-06-30T04:53:51.776Z,74.7
2018-06-30T04:58:48.406Z,74.7
2018-06-30T05:03:45.856Z,74.9
2018-06-30T05:08:42.949Z,74.9
2018-06-30T05:13:40.373Z,75
2018-06-30T05:18:37.410Z,75
2018-06-30T05:23:34.836Z,75.4
2018-06-30T05:28:31.887Z,75.5
2018-06-30T05:33:28.891Z,75.9
2018-06-30T05:38:26.659Z,75.7
2018-06-30T05:43:24.277Z,75.9
2018-06-30T05:48:21.479Z,75.9
2018-06-30T05:53:18.887Z,75.8
2018-06-30T05:58:15.868Z,75.8
2018-06-30T06:03:13.510Z,75.8
2018-06-30T06:08:11.424Z,75.7
2018-06-30T06:13:08.644Z,75.5
2018-06-30T06:18:04.747Z,75.5
2018-06-30T06:23:01.528Z,75.4
2018-06-30T06:27:58.395Z,75.6
2018-06-30T06:32:56.055Z,75.7
2018-06-30T06:37:53.089Z,75.8
2018-06-30T06:42:50.528Z,75.9
2018-06-30T06:47:49.106Z,76.1
2018-06-30T06:52:51.445Z,76
2018-06-30T06:57:47.291Z,75.7
2018-06-30T07:02:44.636Z,75.7
2018-06-30T07:07:42.000Z,75.6
2018-06-30T07:12:39.165Z,75.6
2018-06-30T07:17:37.694Z,75.3
2018-06-30T07:22:34.938Z,75.2
2018-06-30T07:27:32.544Z,75.1
2018-06-30T07:32:29.522Z,74.8
2018-06-30T07:37:27.116Z,74.8
2018-06-30T07:42:23.985Z,74.8
2018-06-30T07:47:21.107Z,74.7
2018-06-30T07:52:18.256Z,74.6
2018-06-30T07:57:15.470Z,74.7
2018-06-30T08:02:12.946Z,74.7
2018-06-30T08:07:10.767Z,74.6
2018-06-30T08:12:08.904Z,74.1
2018-06-30T08:17:06.222Z,73.9
2018-06-30T08:22:03.670Z,73.1
2018-06-30T08:27:01.282Z,72.7
2018-06-30T08:31:58.977Z,73
2018-06-30T08:36:57.102Z,72.8
2018-06-30T08:41:54.367Z,72.5
2018-06-30T08:46:51.768Z,71.7
2018-06-30T08:51:48.846Z,71.3
2018-06-30T08:56:46.130Z,70.6
2018-06-30T09:01:43.360Z,70.3
2018-06-30T09:06:40.949Z,70.3
2018-06-30T09:11:39.546Z,69.7
2018-06-30T09:16:36.988Z,69.2
2018-06-30T09:21:34.513Z,68.9
2018-06-30T09:26:31.945Z,68.4
2018-06-30T09:31:29.126Z,68.2
2018-06-30T09:36:26.567Z,67.3
2018-06-30T09:41:24.326Z,67.8
2018-06-30T09:46:21.944Z,67
2018-06-30T09:51:19.650Z,66.8
2018-06-30T09:56:17.018Z,67.2
2018-06-30T10:01:13.695Z,65.7
2018-06-30T10:06:11.291Z,65.9
2018-06-30T10:11:08.686Z,66
2018-06-30T10:16:06.183Z,65.6
2018-06-30T10:21:03.138Z,64.7
2018-06-30T10:26:00.368Z,64.2
2018-06-30T10:30:57.916Z,64.2
2018-06-30T10:35:55.212Z,64.3
2018-06-30T10:40:52.703Z,63.8
2018-06-30T10:45:50.295Z,63.9
2018-06-30T10:50:47.622Z,63.3
2018-06-30T10:55:45.074Z,62.3
2018-06-30T11:00:41.600Z,62.3
2018-06-30T11:05:39.108Z,62.3
2018-06-30T11:10:36.773Z,61.9
2018-06-30T11:15:35.176Z,62
2018-06-30T11:20:32.524Z,60.8
2018-06-30T11:25:30.607Z,61.4
2018-06-30T11:30:28.854Z,60.2
2018-06-30T11:35:26.569Z,59.3
2018-06-30T11:40:24.204Z,59.2
2018-06-30T11:45:22.125Z,59
2018-06-30T11:50:18.082Z,58.4
2018-06-30T11:55:15.388Z,58.3
2018-06-30T12:00:13.296Z,56.5
2018-06-30T12:05:11.959Z,57.7
2018-06-30T12:10:09.709Z,54.4
2018-06-30T12:15:07.571Z,54.1
2018-06-30T12:20:05.989Z,54.4
2018-06-30T12:25:04.146Z,52.6
2018-06-30T12:30:02.144Z,52.8
2018-06-30T12:35:00.208Z,51.1
2018-06-30T12:39:58.276Z,52.1
2018-06-30T12:44:56.124Z,51.3
2018-06-30T12:49:54.159Z,51.1
2018-06-30T12:54:51.921Z,51.3
2018-06-30T12:59:50.075Z,50.1
2018-06-30T13:04:47.899Z,51.1
2018-06-30T13:09:45.884Z,49.9
2018-06-30T13:14:44.037Z,49.2
2018-06-30T13:19:42.588Z,49.5
2018-06-30T13:24:40.694Z,48.2
2018-06-30T13:29:39.223Z,46.8
2018-06-30T13:34:37.283Z,47.6
2018-06-30T13:39:36.079Z,48.2
2018-06-30T13:44:33.756Z,46.7
2018-06-30T13:49:31.283Z,48.1
2018-06-30T13:54:29.669Z,47.1
2018-06-30T13:59:27.142Z,47.4
2018-06-30T14:04:25.217Z,47.4
2018-06-30T14:09:22.540Z,47.8
2018-06-30T14:14:21.354Z,48.1
2018-06-30T14:19:18.960Z,47.1
2018-06-30T14:24:17.205Z,47.1
2018-06-30T14:29:15.376Z,47.9
2018-06-30T14:34:13.364Z,47.6
2018-06-30T14:39:11.069Z,47.8
2018-06-30T14:44:09.879Z,48
2018-06-30T14:49:08.344Z,46.8
2018-06-30T14:54:06.016Z,46.7
2018-06-30T14:59:04.157Z,47.9
2018-06-30T15:04:01.516Z,49.5
2018-06-30T15:08:59.069Z,50.1
2018-06-30T15:13:54.825Z,49.9
2018-06-30T15:18:52.585Z,50.3
2018-06-30T15:23:50.262Z,50.6
2018-06-30T15:28:48.554Z,50.9
2018-06-30T15:33:46.330Z,51.5
2018-06-30T15:38:44.065Z,52
2018-06-30T15:43:41.858Z,52.8
2018-06-30T15:48:39.617Z,53.7
2018-06-30T15:53:37.820Z,54.6
2018-06-30T15:58:35.670Z,54.8
2018-06-30T16:03:33.301Z,55.3
2018-06-30T16:08:31.187Z,55.4
2018-06-30T16:13:28.925Z,55.4
2018-06-30T16:18:26.857Z,55.4
2018-06-30T16:23:24.596Z,55.4
2018-06-30T16:28:23.086Z,55.2
2018-06-30T16:33:20.898Z,55.1
2018-06-30T16:38:19.840Z,54.9
2018-06-30T16:43:20.845Z,55.3
2018-06-30T16:48:19.143Z,55.5
2018-06-30T16:53:17.166Z,55.6
2018-06-30T16:58:16.077Z,55.7
2018-06-30T17:03:13.893Z,55.9
2018-06-30T17:08:12.343Z,56.1
2018-06-30T17:13:10.949Z,56.4
2018-06-30T17:18:09.643Z,56.9
2018-06-30T17:23:07.307Z,57.2
2018-06-30T17:28:05.326Z,57.5
2018-06-30T17:33:03.010Z,57.8
2018-06-30T17:38:00.666Z,58.2
2018-06-30T17:42:58.804Z,58.3
2018-06-30T17:47:57.024Z,58.8
2018-06-30T17:52:55.006Z,59
2018-06-30T17:57:52.935Z,59.4
2018-06-30T18:02:50.834Z,59.8
2018-06-30T18:07:49.377Z,60.2
2018-06-30T18:12:47.133Z,60.3
2018-06-30T18:17:44.969Z,60.5
2018-06-30T18:22:43.566Z,60.7
2018-06-30T18:27:40.915Z,60.7
2018-06-30T18:32:38.598Z,60.9
2018-06-30T18:37:36.582Z,60.9
2018-06-30T18:42:34.543Z,60.7
2018-06-30T18:47:32.919Z,60.7
2018-06-30T18:52:30.613Z,60.6
2018-06-30T18:57:28.858Z,60.5
2018-06-30T19:02:26.983Z,60.3
2018-06-30T19:07:24.262Z,59.9
2018-06-30T19:12:21.729Z,59.6
2018-06-30T19:17:20.464Z,59.2
2018-06-30T19:22:19.027Z,58.8
2018-06-30T19:27:17.061Z,58.5
2018-06-30T19:32:14.836Z,58
2018-06-30T19:37:13.052Z,57.8
2018-06-30T19:42:11.608Z,57.7
2018-06-30T19:47:09.296Z,57.6
2018-06-30T19:52:06.615Z,57.2
2018-06-30T19:57:03.887Z,57.1
2018-06-30T20:02:01.514Z,56.9
2018-06-30T20:06:58.838Z,56.3
2018-06-30T20:11:57.072Z,56.4
2018-06-30T20:16:54.994Z,56.5
2018-06-30T20:21:53.363Z,56.6
2018-06-30T20:26:51.501Z,56.4
2018-06-30T20:31:49.160Z,56.6
2018-06-30T20:36:46.983Z,56.6
2018-06-30T20:41:44.240Z,56.8
2018-06-30T20:46:42.575Z,56.7
2018-06-30T20:51:40.485Z,56.8
2018-06-30T20:56:39.598Z,56.9
2018-06-30T21:01:37.790Z,57.1
2018-06-30T21:06:35.249Z,57.4
2018-06-30T21:11:32.768Z,57.8
2018-06-30T21:16:31.329Z,58.2
2018-06-30T21:21:29.165Z,58.6
2018-06-30T21:26:27.091Z,58.8
2018-06-30T21:31:25.251Z,59.1
2018-06-30T21:36:23.268Z,59.4
2018-06-30T21:41:21.695Z,59.6
2018-06-30T21:46:19.301Z,60
2018-06-30T21:51:18.075Z,60.2
2018-06-30T21:56:15.280Z,60.1
2018-06-30T22:01:13.905Z,59.9
2018-06-30T22:06:12.678Z,59.9
2018-06-30T22:11:10.581Z,59.9
2018-06-30T22:16:08.745Z,60
2018-06-30T22:21:06.800Z,59.8
2018-06-30T22:26:04.859Z,59.7
2018-06-30T22:31:02.617Z,59.6
2018-06-30T22:36:01.437Z,59.6
2018-06-30T22:40:59.131Z,59.7
2018-06-30T22:45:57.126Z,59.9
2018-06-30T22:50:55.141Z,59.9
2018-06-30T22:55:53.267Z,60
2018-06-30T23:00:51.439Z,60.1
2018-06-30T23:05:49.257Z,60.2
2018-06-30T23:10:47.464Z,60.2
2018-06-30T23:15:45.691Z,60.3
2018-06-30T23:20:44.486Z,60.3
2018-06-30T23:25:42.490Z,60.4
2018-06-30T23:30:40.041Z,60.5
2018-06-30T23:35:38.586Z,60.7
2018-06-30T23:40:37.138Z,60.7
2018-06-30T23:45:34.957Z,60.8
2018-06-30T23:50:32.590Z,60.9
2018-06-30T23:55:30.554Z,60.6
